Time;durP1;ratioP1;P1;durP2;ratioP2;P2;SDS_P1;SDS_P2;PMS_P1;PMS_P2;Temp;Humidity;BMP_temperature;BMP_pressure;BME280_temperature;BME280_humidity;BME280_pressure;Samples;Min_cycle;Max_cycle;Signal;HPM_P1;HPM_P2
2022/05/25 00:00:41;;;;;;;1.07;0.90;;;13.20;99.90;;;-141.84;70.26;18417.84;5073150;28;20285;-62
2022/05/25 00:03:09;;;;;;;2.60;1.10;;;13.20;99.90;;;-141.84;69.92;18432.09;5072736;28;20652;-62
2022/05/25 00:05:39;;;;;;;1.63;1.30;;;13.10;99.90;;;-141.84;69.91;18425.97;5072316;28;20657;-64
2022/05/25 00:08:09;;;;;;;3.33;1.20;;;13.10;99.90;;;-141.84;71.20;18399.56;5073570;28;20200;-63
2022/05/25 00:10:37;;;;;;;2.67;1.20;;;13.10;99.90;;;-141.84;70.17;18423.94;5073506;28;20616;-63
2022/05/25 00:13:06;;;;;;;2.30;1.37;;;13.00;99.90;;;-141.84;69.68;18401.59;5073797;28;20296;-63
2022/05/25 00:15:34;;;;;;;2.20;1.30;;;13.00;99.90;;;-141.84;69.26;18417.84;5073243;28;20691;-63
2022/05/25 00:18:03;;;;;;;1.40;1.20;;;13.00;99.90;;;-141.84;69.69;18393.47;5072255;28;20219;-63
2022/05/25 00:20:30;;;;;;;1.50;1.40;;;13.00;99.90;;;-141.84;69.40;18405.66;5072665;28;20236;-63
2022/05/25 00:22:58;;;;;;;2.70;1.50;;;13.00;99.90;;;-141.84;69.36;18417.84;5073196;28;20668;-64
2022/05/25 00:25:33;;;;;;;1.53;1.20;;;13.00;99.90;;;-141.84;69.88;18419.88;5073146;28;20220;-63
2022/05/25 00:28:03;;;;;;;2.20;1.30;;;12.90;99.90;;;-141.84;70.23;18387.38;5072218;28;20185;-64
2022/05/25 00:30:32;;;;;;;2.37;1.37;;;12.90;99.90;;;-141.84;68.82;18436.16;5072201;28;20678;-62
2022/05/25 00:33:02;;;;;;;1.80;1.30;;;13.00;99.90;;;-141.84;69.72;18419.88;5073060;28;20207;-63
2022/05/25 00:35:34;;;;;;;1.37;1.20;;;13.00;99.90;;;-141.84;69.55;18425.97;5072918;28;20196;-64
2022/05/25 00:38:03;;;;;;;2.20;1.20;;;13.00;99.90;;;-141.84;68.45;18428.03;5073124;28;20288;-63
2022/05/25 00:40:39;;;;;;;2.77;1.10;;;13.00;99.90;;;-141.84;68.75;18430.06;5071559;28;20223;-63
2022/05/25 00:43:09;;;;;;;1.20;1.10;;;13.00;99.90;;;-141.84;69.35;18415.81;5065004;28;20210;-64
2022/05/25 00:45:43;;;;;;;1.57;1.10;;;13.00;99.90;;;-141.84;68.71;18401.59;5072553;28;20220;-64
2022/05/25 00:48:25;;;;;;;2.43;1.23;;;13.00;99.90;;;-141.84;68.83;18438.19;5073059;28;20287;-63
2022/05/25 00:53:42;;;;;;;1.53;1.13;;;13.00;99.90;;;-141.84;70.20;18403.63;5071710;28;20669;-63
2022/05/25 00:56:19;;;;;;;1.57;1.40;;;12.90;99.90;;;-141.84;70.36;18389.41;5072592;28;20205;-64
2022/05/25 00:58:57;;;;;;;2.03;1.20;;;12.90;99.90;;;-141.84;70.91;18383.31;5073298;28;20271;-63
2022/05/25 01:01:27;;;;;;;3.40;1.20;;;12.90;99.90;;;-141.84;70.01;18395.50;5072936;28;20191;-63
2022/05/25 01:03:55;;;;;;;2.87;1.30;;;12.90;99.90;;;-141.84;70.18;18415.81;5072630;28;20229;-63
2022/05/25 01:06:56;;;;;;;1.47;1.37;;;12.90;99.90;;;-141.84;69.61;18428.03;5070508;28;20254;-63
2022/05/25 01:09:41;;;;;;;1.73;1.33;;;12.90;99.90;;;-141.84;68.31;18434.13;5071222;28;20192;-63
2022/05/25 01:12:32;;;;;;;2.40;1.30;;;13.00;99.90;;;-141.84;67.73;18436.16;5071541;28;20220;-64
2022/05/25 01:15:14;;;;;;;1.67;1.30;;;13.00;99.90;;;-141.84;68.31;18423.94;5071990;28;20329;-61
2022/05/25 01:18:01;;;;;;;1.30;1.20;;;13.00;99.90;;;-141.84;69.01;18415.81;5073281;28;20232;-64
2022/05/25 01:20:38;;;;;;;2.93;1.70;;;13.00;99.90;;;-141.84;69.22;18395.50;5072988;28;20215;-63
2022/05/25 01:24:02;;;;;;;2.53;1.60;;;13.00;99.90;;;-141.84;68.15;18425.97;5073358;28;20295;-64
2022/05/25 01:27:18;;;;;;;2.97;1.60;;;13.00;99.90;;;-141.84;69.22;18430.06;5068291;28;20287;-63
2022/05/25 01:30:15;;;;;;;2.83;1.50;;;13.00;99.90;;;-141.84;70.25;18395.50;5037174;28;20251;-63
2022/05/25 01:33:00;;;;;;;1.70;1.40;;;12.90;99.90;;;-141.84;70.59;18383.31;5073449;28;20217;-64
2022/05/25 01:35:43;;;;;;;1.80;1.60;;;12.90;99.90;;;-141.84;70.34;18428.03;5073012;28;20736;-63
2022/05/25 01:38:23;;;;;;;2.23;1.37;;;12.90;99.90;;;-141.84;69.43;18411.75;5069818;28;20207;-63
2022/05/25 01:41:03;;;;;;;3.80;1.30;;;12.90;99.90;;;-141.84;70.45;18395.50;5072346;28;20236;-63
2022/05/25 01:43:39;;;;;;;1.53;1.30;;;12.90;99.90;;;-141.84;70.51;18395.50;5072741;28;20720;-64
2022/05/25 01:46:16;;;;;;;2.13;1.60;;;12.90;99.90;;;-141.84;70.50;18399.56;5072837;28;20209;-63
2022/05/25 01:48:48;;;;;;;3.30;1.50;;;12.90;99.90;;;-141.84;71.20;18383.31;5070990;28;20668;-64
2022/05/25 01:51:22;;;;;;;1.43;1.30;;;12.90;99.90;;;-141.84;71.55;18377.22;5071630;28;20771;-62
2022/05/25 01:53:57;;;;;;;1.57;1.37;;;12.90;99.90;;;-141.84;71.73;18397.53;5071480;28;20219;-63
2022/05/25 01:56:29;;;;;;;1.40;1.30;;;12.80;99.90;;;-141.84;72.22;18379.25;5071558;28;20185;-64
2022/05/25 01:59:05;;;;;;;1.67;1.37;;;12.80;99.90;;;-141.84;71.71;18363.00;5071407;28;20562;-64
2022/05/25 02:01:34;;;;;;;5.87;2.03;;;12.80;99.90;;;-141.84;70.90;18379.25;5071911;28;20284;-63
2022/05/25 02:04:20;;;;;;;1.93;1.60;;;12.90;99.90;;;-141.84;70.62;18391.44;5070647;28;20227;-64
2022/05/25 02:07:11;;;;;;;1.93;1.70;;;12.90;99.90;;;-141.84;71.72;18397.53;5071769;28;20227;-63
2022/05/25 02:09:56;;;;;;;1.70;1.50;;;12.90;99.90;;;-141.84;71.95;18350.81;5072297;28;20192;-64
2022/05/25 02:12:41;;;;;;;1.70;1.53;;;12.80;99.90;;;-141.84;72.73;18401.59;5072562;28;20185;-64
2022/05/25 02:15:27;;;;;;;1.60;1.50;;;12.90;99.90;;;-141.84;72.25;18371.13;5071454;28;20195;-64
2022/05/25 02:18:09;;;;;;;1.80;1.63;;;12.80;99.90;;;-141.84;71.71;18340.66;5071264;28;20196;-63
2022/05/25 02:20:50;;;;;;;1.90;1.40;;;12.80;99.90;;;-141.84;71.02;18391.44;5072335;28;20221;-64
2022/05/25 02:23:26;;;;;;;2.70;1.57;;;12.90;99.90;;;-141.84;71.46;18379.25;5072275;28;20188;-63
2022/05/25 02:26:05;;;;;;;2.30;1.57;;;12.90;99.90;;;-141.84;72.42;18356.91;5071807;28;20216;-64
2022/05/25 02:28:39;;;;;;;1.50;1.40;;;12.90;99.90;;;-141.84;72.34;18352.84;5071199;28;20239;-64
2022/05/25 02:31:15;;;;;;;3.77;1.70;;;12.90;99.90;;;-141.84;70.90;18371.13;5071197;28;20647;-63
2022/05/25 02:33:52;;;;;;;3.10;2.10;;;12.90;99.90;;;-141.84;71.57;18369.09;5072160;28;20239;-62
2022/05/25 02:36:21;;;;;;;2.53;2.33;;;12.90;99.90;;;-141.84;70.83;18401.59;5072076;28;20180;-63
2022/05/25 02:38:49;;;;;;;2.80;1.70;;;12.90;99.90;;;-141.84;71.46;18367.06;5070732;28;20236;-63
2022/05/25 02:41:31;;;;;;;3.67;2.03;;;12.90;99.90;;;-141.84;71.26;18365.03;5070801;28;20298;-63
2022/05/25 02:44:03;;;;;;;3.80;2.17;;;12.90;99.90;;;-141.84;71.26;18377.22;5072107;28;20271;-63
2022/05/25 02:46:31;;;;;;;2.60;2.00;;;12.80;99.90;;;-141.84;71.72;18373.16;5072111;28;20301;-63
2022/05/25 02:49:00;;;;;;;2.97;2.10;;;12.80;99.90;;;-141.84;71.55;18363.00;5072100;28;20201;-63
2022/05/25 02:51:28;;;;;;;2.57;1.90;;;12.80;99.90;;;-141.84;72.34;18371.13;5070193;28;20294;-64
2022/05/25 02:53:56;;;;;;;2.03;1.83;;;12.70;99.90;;;-141.84;72.67;18354.88;5071524;28;20211;-63
2022/05/25 02:56:24;;;;;;;3.10;2.00;;;12.70;99.90;;;-141.84;71.34;18371.13;5071992;28;20207;-64
2022/05/25 02:58:52;;;;;;;4.03;2.00;;;12.70;99.90;;;-141.84;71.93;18330.50;5071931;28;20215;-63
2022/05/25 03:01:20;;;;;;;2.43;2.03;;;12.60;99.90;;;-141.84;71.64;18352.84;5070835;28;20238;-63
2022/05/25 03:03:48;;;;;;;1.93;1.73;;;12.60;99.90;;;-141.84;72.12;18379.25;5070949;28;20601;-64
2022/05/25 03:06:18;;;;;;;1.97;1.50;;;12.60;99.90;;;-141.84;72.90;18334.56;5071287;28;20664;-63
2022/05/25 03:08:46;;;;;;;1.97;1.80;;;12.60;99.90;;;-141.84;72.36;18358.94;5071658;28;20201;-63
2022/05/25 03:11:14;;;;;;;1.80;1.70;;;12.60;99.90;;;-141.84;72.64;18352.84;5071706;28;20359;-63
2022/05/25 03:13:47;;;;;;;2.03;1.27;;;12.60;99.90;;;-141.84;72.38;18360.97;5070955;28;20287;-63
2022/05/25 03:16:17;;;;;;;2.73;1.60;;;12.70;99.90;;;-141.84;71.39;18371.13;5071671;28;20239;-63
2022/05/25 03:18:45;;;;;;;1.60;1.50;;;12.70;99.90;;;-141.84;72.28;18342.69;5071690;28;20711;-63
2022/05/25 03:21:14;;;;;;;1.53;1.37;;;12.70;99.90;;;-141.84;72.83;18354.88;5072156;28;20201;-64
2022/05/25 03:23:43;;;;;;;2.93;1.40;;;12.70;99.90;;;-141.84;73.47;18342.69;5071404;28;20201;-63
2022/05/25 03:26:12;;;;;;;2.70;1.70;;;12.60;99.90;;;-141.84;73.89;18348.78;5070181;28;20216;-63
2022/05/25 03:28:40;;;;;;;1.53;1.23;;;12.60;99.90;;;-141.84;74.28;18330.50;5072013;28;20201;-63
2022/05/25 03:31:08;;;;;;;1.93;1.60;;;12.60;99.90;;;-141.84;74.15;18326.44;5071626;28;20567;-63
2022/05/25 03:33:36;;;;;;;1.77;1.50;;;12.60;99.90;;;-141.84;73.96;18326.44;5071936;28;20227;-64
2022/05/25 03:36:05;;;;;;;1.60;1.50;;;12.70;99.90;;;-141.84;73.59;18344.72;5070650;28;20197;-64
2022/05/25 03:38:33;;;;;;;1.70;1.60;;;12.70;99.90;;;-141.84;72.58;18373.16;5071634;28;20300;-66
2022/05/25 03:41:02;;;;;;;3.10;1.80;;;12.80;99.90;;;-141.84;72.19;18338.63;5071431;28;20676;-63
2022/05/25 03:43:34;;;;;;;2.67;1.63;;;12.80;99.90;;;-141.84;72.64;18365.03;5071967;28;20304;-64
2022/05/25 03:46:03;;;;;;;2.90;1.80;;;12.80;99.90;;;-141.84;72.58;18363.00;5070390;28;20219;-65
2022/05/25 03:48:31;;;;;;;2.10;1.53;;;12.90;99.90;;;-141.84;72.81;18354.88;5070654;28;20266;-64
2022/05/25 03:50:59;;;;;;;2.73;1.70;;;12.90;99.90;;;-141.84;72.57;18369.09;5073761;28;20296;-63
2022/05/25 03:53:27;;;;;;;2.07;1.47;;;12.90;99.90;;;-141.84;72.48;18367.06;5075341;28;20196;-62
2022/05/25 03:55:55;;;;;;;3.17;1.60;;;13.00;99.90;;;-141.84;72.38;18350.81;5075292;28;20291;-63
2022/05/25 03:58:25;;;;;;;1.90;1.70;;;13.00;99.90;;;-141.84;71.83;18371.13;5074009;28;20209;-61
2022/05/25 04:00:53;;;;;;;1.97;1.60;;;13.10;99.90;;;-141.84;72.00;18352.84;5074411;28;20213;-63
2022/05/25 04:03:23;;;;;;;1.90;1.50;;;13.10;99.90;;;-141.84;72.31;18367.06;5075253;28;20284;-62
2022/05/25 04:05:52;;;;;;;1.90;1.80;;;13.20;99.90;;;-141.84;72.36;18330.50;5074865;28;20563;-63
2022/05/25 04:08:19;;;;;;;2.87;1.60;;;13.20;99.90;;;-141.84;71.74;18373.16;5074927;28;20201;-62
2022/05/25 04:10:47;;;;;;;3.50;1.80;;;13.20;99.90;;;-141.84;69.77;18387.38;5074781;28;20201;-62
2022/05/25 04:13:16;;;;;;;3.07;1.93;;;13.30;99.90;;;-141.84;70.71;18442.25;5074947;28;20295;-63
2022/05/25 04:15:45;;;;;;;2.03;1.83;;;13.40;99.90;;;-141.84;70.82;18385.34;5074835;28;20197;-63
2022/05/25 04:18:13;;;;;;;2.73;1.67;;;13.40;99.90;;;-141.84;70.66;18379.25;5074310;28;20587;-63
2022/05/25 04:20:42;;;;;;;1.67;1.50;;;13.50;99.90;;;-141.84;70.54;18379.25;5075035;28;20558;-62
2022/05/25 04:23:12;;;;;;;1.73;1.63;;;13.60;99.90;;;-141.84;69.18;18425.97;5074479;28;20201;-62
2022/05/25 04:25:42;;;;;;;1.70;1.50;;;13.60;99.90;;;-141.84;69.64;18419.88;5074604;28;20304;-63
2022/05/25 04:28:10;;;;;;;2.80;1.33;;;13.60;99.90;;;-141.84;69.43;18413.78;5074298;28;20287;-63
2022/05/25 04:30:38;;;;;;;3.27;1.80;;;13.60;99.90;;;-141.84;69.50;18425.97;5074101;28;20207;-63
2022/05/25 04:33:08;;;;;;;3.83;1.77;;;13.70;99.90;;;-141.84;68.50;18460.53;5074479;28;20204;-62
2022/05/25 04:35:36;;;;;;;2.57;2.00;;;13.70;99.90;;;-141.84;68.41;18430.06;5074289;28;20244;-63
2022/05/25 04:38:06;;;;;;;3.23;2.00;;;13.70;99.90;;;-141.84;66.61;18470.69;5074592;28;20259;-62
2022/05/25 04:40:38;;;;;;;2.97;1.70;;;13.80;99.90;;;-141.84;67.13;18466.63;5074268;28;20240;-62
2022/05/25 04:43:12;;;;;;;1.92;1.58;;;14.00;99.90;;;-141.84;66.60;18484.91;5074400;28;20518;-61
2022/05/25 04:45:41;;;;;;;2.47;1.70;;;14.10;99.90;;;-141.84;65.86;18478.81;5074397;28;20188;-62
2022/05/25 04:48:13;;;;;;;2.40;1.70;;;14.10;99.90;;;-141.84;64.64;18517.41;5074176;28;20204;-62
2022/05/25 04:50:45;;;;;;;2.93;2.07;;;14.30;99.90;;;-141.84;63.07;18553.97;5074148;28;20191;-62
2022/05/25 04:53:17;;;;;;;2.60;2.03;;;14.40;99.90;;;-141.84;63.12;18570.22;5074134;28;20181;-63
2022/05/25 04:58:34;;;;;;;3.00;1.70;;;14.60;99.90;;;-141.84;62.45;18547.88;5073938;28;20508;-64
2022/05/25 05:01:04;;;;;;;2.05;1.70;;;14.60;99.90;;;-141.84;61.46;18584.47;5073924;28;20634;-62
2022/05/25 05:03:34;;;;;;;1.93;1.73;;;14.60;99.90;;;-141.84;60.79;18602.75;5073701;28;20217;-63
2022/05/25 05:06:04;;;;;;;2.17;1.58;;;14.60;99.90;;;-141.84;60.77;18614.94;5073865;28;20595;-51
2022/05/25 05:08:33;;;;;;;2.80;1.88;;;14.60;99.90;;;-141.84;60.68;18639.31;5073912;28;20200;-54
2022/05/25 05:11:09;;;;;;;2.20;1.80;;;14.70;99.90;;;-141.84;60.18;18645.41;5073662;28;20203;-55
2022/05/25 05:13:38;;;;;;;2.87;2.00;;;14.70;99.90;;;-141.84;59.74;18673.84;5073615;28;20193;-53
2022/05/25 05:16:09;;;;;;;1.40;1.30;;;14.80;99.90;;;-141.84;60.60;18621.03;5073343;28;20307;-55
2022/05/25 05:18:39;;;;;;;2.80;1.70;;;14.90;99.90;;;-141.84;59.40;18631.19;5073283;28;20237;-53
2022/05/25 05:21:07;;;;;;;2.47;1.70;;;15.00;99.90;;;-141.84;58.24;18734.81;5073177;28;20293;-55
2022/05/25 05:23:37;;;;;;;3.42;1.90;;;15.10;99.90;;;-141.84;58.43;18702.28;5072470;28;20231;-55
2022/05/25 05:26:06;;;;;;;3.30;1.80;;;15.10;99.90;;;-141.84;58.93;18684.00;5072616;28;20217;-54
2022/05/25 05:28:38;;;;;;;2.38;1.80;;;15.20;99.90;;;-141.84;59.62;18679.94;5072434;28;20231;-53
2022/05/25 05:31:07;;;;;;;3.08;1.80;;;15.30;99.90;;;-141.84;59.98;18665.72;5072736;28;20227;-54
2022/05/25 05:33:35;;;;;;;2.22;1.63;;;15.30;99.90;;;-141.84;59.13;18653.53;5072075;28;20672;-54
2022/05/25 05:36:12;;;;;;;1.80;1.58;;;15.40;99.90;;;-141.84;59.17;18669.78;5072725;28;20239;-53
2022/05/25 05:38:49;;;;;;;3.03;1.95;;;15.40;99.90;;;-141.84;58.96;18694.16;5071959;28;20189;-54
2022/05/25 05:41:20;;;;;;;3.28;2.00;;;15.40;99.90;;;-141.84;58.80;18700.25;5071979;28;20224;-52
2022/05/25 05:43:50;;;;;;;1.98;1.60;;;15.40;99.90;;;-141.84;60.11;18665.72;5072319;28;20185;-54
2022/05/25 05:46:18;;;;;;;3.20;2.17;;;15.40;99.90;;;-141.84;60.75;18627.13;5071316;28;20231;-56
2022/05/25 05:48:47;;;;;;;3.00;1.80;;;15.30;99.90;;;-141.84;60.61;18639.31;5071764;28;20224;-55
2022/05/25 05:51:16;;;;;;;4.90;1.52;;;15.30;99.90;;;-141.84;59.95;18651.50;5071897;28;20892;-53
2022/05/25 05:53:45;;;;;;;1.98;1.70;;;15.30;99.90;;;-141.84;57.82;18716.53;5072112;28;20588;-56
2022/05/25 05:56:13;;;;;;;3.80;1.67;;;15.40;99.90;;;-141.84;58.84;18696.19;5072210;28;20739;-51
2022/05/25 05:58:41;;;;;;;1.90;1.60;;;15.30;99.90;;;-141.84;58.92;18673.84;5071827;28;20570;-54
2022/05/25 06:01:09;;;;;;;2.15;1.38;;;15.30;99.90;;;-141.84;58.47;18698.22;5072353;28;20652;-53
2022/05/25 06:03:37;;;;;;;2.95;1.67;;;15.30;99.90;;;-141.84;58.26;18712.47;5072031;28;20291;-52
2022/05/25 06:06:05;;;;;;;3.17;1.58;;;15.30;99.90;;;-141.84;59.06;18667.75;5072143;28;20239;-53
2022/05/25 06:08:34;;;;;;;3.58;1.65;;;15.20;99.90;;;-141.84;57.64;18747.00;5072421;28;20232;-55
2022/05/25 06:11:02;;;;;;;2.95;2.00;;;15.30;99.90;;;-141.84;58.23;18704.31;5072157;28;20296;-53
2022/05/25 06:13:30;;;;;;;2.80;1.88;;;15.30;99.90;;;-141.84;58.54;18686.03;5071532;28;20521;-51
2022/05/25 06:21:31;;;;;;;2.03;1.70;;;15.30;99.90;;;-141.84;59.11;18671.81;5071699;28;20283;-54
2022/05/25 06:24:00;;;;;;;3.33;2.05;;;15.20;99.90;;;-141.84;58.89;18708.41;5071573;28;20763;-52
2022/05/25 06:26:30;;;;;;;4.22;1.90;;;15.30;99.90;;;-141.84;58.42;18716.53;5071905;28;20201;-57
2022/05/25 06:28:59;;;;;;;1.80;1.70;;;15.40;99.90;;;-141.84;57.86;18742.94;5071484;28;20205;-53
2022/05/25 06:31:27;;;;;;;3.20;1.92;;;15.50;99.90;;;-141.84;57.95;18696.19;5071766;28;20535;-55
2022/05/25 06:33:55;;;;;;;2.95;1.88;;;15.50;99.90;;;-141.84;57.99;18714.50;5071482;28;20645;-55
2022/05/25 06:36:26;;;;;;;3.25;1.45;;;15.60;99.90;;;-141.84;58.28;18718.56;5071535;28;20192;-53
2022/05/25 06:38:55;;;;;;;3.55;1.90;;;15.60;99.90;;;-141.84;58.09;18753.09;5071823;28;20189;-53
2022/05/25 06:41:25;;;;;;;1.60;1.50;;;15.70;99.90;;;-141.84;57.34;18783.56;5071315;28;20210;-54
2022/05/25 06:43:53;;;;;;;3.25;1.90;;;15.80;99.90;;;-141.84;55.69;18795.75;5071517;28;20196;-52
2022/05/25 06:46:21;;;;;;;3.25;1.77;;;15.90;99.90;;;-141.84;55.64;18850.63;5071632;28;20200;-56
2022/05/25 06:48:52;;;;;;;2.15;1.85;;;16.20;99.90;;;-141.84;55.78;18844.53;5071830;28;20220;-54
2022/05/25 06:51:23;;;;;;;3.70;1.95;;;16.20;99.90;;;-141.84;55.14;18834.38;5071641;28;20559;-52
2022/05/25 06:53:51;;;;;;;2.97;1.60;;;16.40;99.90;;;-141.84;53.23;18891.25;5071352;28;20185;-55
2022/05/25 06:56:22;;;;;;;2.35;1.80;;;16.60;99.90;;;-141.84;53.41;18887.19;5071328;28;20656;-54
2022/05/25 06:58:52;;;;;;;1.83;1.58;;;16.60;99.90;;;-141.84;53.86;18909.53;5071622;28;20207;-54
2022/05/25 07:01:20;;;;;;;2.35;1.50;;;16.70;99.90;;;-141.84;52.49;18935.97;5071726;28;20274;-55
2022/05/25 07:03:49;;;;;;;1.50;1.40;;;16.70;99.90;;;-141.84;53.04;18913.59;5071539;28;20204;-53
2022/05/25 07:06:19;;;;;;;1.58;1.45;;;16.80;99.90;;;-141.84;52.73;18917.66;5071446;28;20201;-52
2022/05/25 07:08:47;;;;;;;4.07;1.60;;;16.80;99.90;;;-141.84;52.69;18925.81;5071492;28;20224;-50
2022/05/25 07:11:15;;;;;;;1.88;1.67;;;16.80;99.90;;;-141.84;52.47;18927.84;5071474;28;20251;-51
2022/05/25 07:13:45;;;;;;;3.20;1.50;;;16.80;99.90;;;-141.84;52.78;18923.78;5071624;28;20212;-52
2022/05/25 07:16:18;;;;;;;2.08;1.60;;;16.80;99.90;;;-141.84;52.30;18919.69;5071599;28;20284;-53
2022/05/25 07:18:47;;;;;;;1.80;1.60;;;16.80;99.90;;;-141.84;52.82;18915.63;5071931;28;20536;-53
2022/05/25 07:21:18;;;;;;;2.15;1.42;;;16.90;99.90;;;-141.84;53.91;18903.44;5071843;28;20212;-52
2022/05/25 07:23:49;;;;;;;4.55;1.80;;;16.80;99.90;;;-141.84;52.82;18921.75;5072114;28;20283;-52
2022/05/25 07:26:19;;;;;;;2.13;1.52;;;16.80;99.90;;;-141.84;53.51;18901.41;5075018;28;20185;-55
2022/05/25 07:28:47;;;;;;;2.92;2.10;;;16.80;99.90;;;-141.84;54.03;18881.09;5075325;28;20241;-54
2022/05/25 07:31:24;;;;;;;1.90;1.60;;;16.70;99.90;;;-141.84;52.77;18996.91;5075581;28;20235;-55
2022/05/25 07:34:01;;;;;;;2.35;1.58;;;16.80;99.90;;;-141.84;52.37;18929.88;5075735;28;20188;-53
2022/05/25 07:36:31;;;;;;;2.53;1.25;;;16.80;99.90;;;-141.84;52.51;18938.00;5075457;28;20193;-53
2022/05/25 07:39:04;;;;;;;2.72;1.58;;;16.80;99.90;;;-141.84;51.73;18927.84;5075165;28;20197;-56
2022/05/25 07:41:36;;;;;;;2.22;1.70;;;16.80;99.90;;;-141.84;50.94;18984.72;5074913;28;20599;-55
2022/05/25 07:44:06;;;;;;;4.13;1.70;;;16.80;99.90;;;-141.84;52.26;18944.09;5075230;28;20717;-53
2022/05/25 07:46:36;;;;;;;2.55;1.25;;;17.00;99.90;;;-141.84;52.98;18903.44;5075572;28;20216;-55
2022/05/25 07:49:04;;;;;;;2.47;1.25;;;17.10;99.90;;;-141.84;51.80;18984.72;5075145;28;20221;-53
2022/05/25 07:51:32;;;;;;;1.60;1.50;;;17.30;99.90;;;-141.84;50.74;18988.78;5075195;28;20228;-54
2022/05/25 07:54:02;;;;;;;2.70;1.38;;;17.60;99.90;;;-141.84;49.79;19035.53;5075203;28;20228;-58
2022/05/25 07:56:34;;;;;;;2.30;1.70;;;17.70;99.90;;;-141.84;49.06;19068.03;5075165;28;20204;-53
2022/05/25 07:59:06;;;;;;;1.70;1.60;;;17.90;99.90;;;-141.84;46.68;19126.97;5074901;28;20204;-53
2022/05/25 08:07:17;;;;;;;2.95;1.60;;;18.50;99.90;;;-141.84;45.98;19222.47;5075137;28;20193;-62
2022/05/25 08:09:44;;;;;;;2.25;1.75;;;18.60;99.90;;;-141.84;43.64;19309.84;5074691;28;20684;-63
2022/05/25 08:12:14;;;;;;;2.92;1.80;;;18.70;99.90;;;-141.84;44.52;19267.16;5075153;28;20591;-53
2022/05/25 08:14:42;;;;;;;3.83;1.70;;;18.80;99.90;;;-141.84;45.07;19285.47;5074534;28;20201;-55
2022/05/25 08:17:11;;;;;;;3.08;1.70;;;18.60;99.90;;;-141.84;45.58;19250.91;5074681;28;20209;-54
2022/05/25 08:19:39;;;;;;;4.13;1.90;;;18.60;99.90;;;-141.84;46.80;19179.78;5074963;28;20526;-57
2022/05/25 08:22:09;;;;;;;2.92;1.70;;;18.40;99.90;;;-141.84;47.08;19159.47;5074679;28;20506;-55
2022/05/25 08:24:37;;;;;;;2.88;1.85;;;18.10;99.90;;;-141.84;46.92;19177.75;5074767;28;20276;-51
2022/05/25 08:27:06;;;;;;;2.03;1.45;;;17.90;99.90;;;-141.84;47.68;19102.56;5074780;28;20197;-55
2022/05/25 08:29:34;;;;;;;1.30;1.20;;;18.00;99.90;;;-141.84;48.08;19098.50;5074771;28;20228;-53
2022/05/25 08:32:02;;;;;;;2.25;1.40;;;17.90;99.90;;;-141.84;49.05;19041.63;5074732;28;20197;-54
2022/05/25 08:34:32;;;;;;;2.35;2.08;;;17.80;99.90;;;-141.84;48.96;19027.41;5074617;28;20575;-56
2022/05/25 08:37:01;;;;;;;1.98;1.50;;;17.50;99.90;;;-141.84;50.05;19021.31;5074115;28;20208;-53
2022/05/25 08:39:30;;;;;;;3.17;1.92;;;17.50;99.90;;;-141.84;48.86;19009.09;5074299;28;20291;-54
2022/05/25 08:42:06;;;;;;;2.10;1.90;;;17.50;99.90;;;-141.84;49.29;19009.09;5074602;28;20181;-56
2022/05/25 08:44:36;;;;;;;3.03;1.60;;;17.50;99.90;;;-141.84;49.44;19013.16;5074000;28;20723;-52
2022/05/25 08:47:09;;;;;;;1.85;1.70;;;17.40;99.90;;;-141.84;49.21;19011.13;5074366;28;20197;-54
2022/05/25 08:49:43;;;;;;;3.97;1.88;;;17.40;99.90;;;-141.84;49.93;19000.97;5074393;28;20201;-53
2022/05/25 08:52:24;;;;;;;2.22;1.60;;;17.40;99.90;;;-141.84;49.27;19037.56;5074514;28;20268;-52
2022/05/25 08:54:53;;;;;;;2.20;1.90;;;17.40;99.90;;;-141.84;50.09;19025.38;5074405;28;20216;-56
2022/05/25 08:57:48;;;;;;;2.38;1.98;;;17.50;99.90;;;-141.84;49.49;19017.25;5074217;28;20205;-54
2022/05/25 09:00:19;;;;;;;3.45;1.90;;;17.50;99.90;;;-141.84;49.03;19025.38;5073143;28;20200;-55
2022/05/25 09:02:59;;;;;;;2.25;1.42;;;17.50;99.90;;;-141.84;49.48;19045.69;5073957;28;20238;-54
2022/05/25 09:05:35;;;;;;;2.17;1.70;;;17.50;99.90;;;-141.84;48.48;19047.72;5073992;28;20191;-55
2022/05/25 09:08:20;;;;;;;2.50;1.60;;;17.60;99.90;;;-141.84;48.79;19013.16;5073800;28;20208;-52
2022/05/25 09:10:54;;;;;;;2.25;1.70;;;17.70;99.90;;;-141.84;48.69;19108.69;5073713;28;20185;-55
2022/05/25 09:13:33;;;;;;;1.73;1.58;;;17.70;99.90;;;-141.84;47.91;19096.47;5073468;28;20191;-56
2022/05/25 09:16:19;;;;;;;2.72;1.77;;;17.90;99.90;;;-141.84;46.86;19114.78;5073680;28;20189;-55
2022/05/25 09:19:00;;;;;;;2.13;1.35;;;18.00;99.90;;;-141.84;44.98;19210.28;5073711;28;20264;-54
2022/05/25 09:21:36;;;;;;;3.38;1.38;;;18.10;99.90;;;-141.84;43.11;19261.06;5073664;28;20541;-55
2022/05/25 09:24:12;;;;;;;1.35;1.02;;;18.20;99.90;;;-141.84;42.39;19330.16;5073317;28;20185;-54
2022/05/25 09:26:42;;;;;;;2.17;0.85;;;18.40;99.90;;;-141.84;42.99;19297.66;5073546;28;20225;-54
2022/05/25 09:29:12;;;;;;;1.13;0.90;;;18.50;99.90;;;-141.84;42.01;19370.81;5073294;28;20319;-52
2022/05/25 09:31:48;;;;;;;2.90;1.15;;;18.70;99.90;;;-141.84;39.98;19472.41;5073460;28;20191;-59
2022/05/25 09:34:30;;;;;;;3.05;1.50;;;18.90;99.90;;;-141.84;39.33;19488.69;5073201;28;20188;-55
2022/05/25 09:37:09;;;;;;;1.65;1.23;;;19.10;99.90;;;-141.84;40.38;19411.44;5073591;28;20185;-52
2022/05/25 09:39:45;;;;;;;2.00;1.40;;;18.90;99.90;;;-141.84;40.44;19443.97;5073008;28;20204;-57
2022/05/25 09:42:20;;;;;;;2.75;1.58;;;18.90;99.90;;;-141.84;41.08;19391.13;5073368;28;20185;-55
2022/05/25 09:44:52;;;;;;;2.80;1.27;;;19.00;99.90;;;-141.84;40.92;19429.75;5073320;28;20184;-54
2022/05/25 09:47:25;;;;;;;2.10;1.30;;;19.00;99.90;;;-141.84;42.46;19338.28;5072418;28;20189;-54
2022/05/25 09:49:58;;;;;;;1.92;1.38;;;18.90;99.90;;;-141.84;41.89;19389.09;5073229;28;20741;-53
2022/05/25 09:52:39;;;;;;;2.58;1.23;;;18.90;99.90;;;-141.84;42.45;19344.41;5073061;28;20199;-54
2022/05/25 09:55:16;;;;;;;2.63;1.13;;;18.80;99.90;;;-141.84;41.78;19344.41;5072858;28;20191;-50
2022/05/25 09:57:55;;;;;;;2.35;1.33;;;18.90;99.90;;;-141.84;41.53;19399.25;5072575;28;20603;-52
2022/05/25 10:00:40;;;;;;;2.95;1.27;;;18.90;99.90;;;-141.84;42.35;19358.63;5072518;28;20244;-52
2022/05/25 10:03:13;;;;;;;2.13;1.40;;;19.00;99.90;;;-141.84;41.23;19448.03;5072639;28;20226;-54
2022/05/25 10:05:57;;;;;;;1.67;1.40;;;19.20;99.90;;;-141.84;41.03;19464.28;5072723;28;20193;-52
2022/05/25 10:08:36;;;;;;;1.70;1.55;;;19.30;99.90;;;-141.84;41.22;19401.28;5072813;28;20181;-54
2022/05/25 10:11:27;;;;;;;1.67;1.40;;;19.20;99.90;;;-141.84;41.21;19411.44;5072393;28;20280;-53
2022/05/25 10:14:14;;;;;;;1.75;1.40;;;19.20;99.90;;;-141.84;40.98;19443.97;5072429;28;20598;-52
2022/05/25 10:16:43;;;;;;;3.53;1.80;;;19.20;99.90;;;-141.84;41.55;19450.06;5072512;28;20195;-53
2022/05/25 10:19:13;;;;;;;3.53;2.10;;;19.50;99.90;;;-141.84;40.57;19525.25;5072253;28;20552;-53
2022/05/25 10:21:50;;;;;;;2.10;1.80;;;19.60;99.90;;;-141.84;39.98;19509.00;5072272;28;20185;-56
2022/05/25 10:24:26;;;;;;;2.10;1.90;;;19.80;99.90;;;-141.84;39.40;19555.75;5072029;28;20212;-53
2022/05/25 10:26:58;;;;;;;3.60;1.92;;;20.00;99.90;;;-141.84;38.88;19578.09;5072357;28;20297;-54
2022/05/25 10:38:14;;;;;;;2.35;1.40;;;20.10;99.90;;;-141.84;38.89;19604.50;5072040;28;20193;-56
2022/05/25 10:40:46;;;;;;;2.80;1.50;;;20.10;99.90;;;-141.84;39.65;19529.31;5071829;28;20288;-53
2022/05/25 10:43:27;;;;;;;1.90;1.58;;;20.00;99.90;;;-141.84;39.80;19547.59;5072172;28;20196;-55
2022/05/25 10:45:58;;;;;;;2.00;1.70;;;20.00;99.90;;;-141.84;40.07;19492.75;5072064;28;20209;-55
2022/05/25 10:48:44;;;;;;;2.03;1.40;;;19.90;99.90;;;-141.84;40.15;19500.88;5072100;28;20273;-54
2022/05/25 10:51:20;;;;;;;1.40;1.27;;;19.80;99.90;;;-141.84;40.62;19488.69;5072051;28;20303;-57
2022/05/25 10:56:52;;;;;;;2.83;1.33;;;19.70;99.90;;;-141.84;42.14;19378.94;5069464;28;20613;-57